createdAt,value
2023-05-15T00:02:21.417Z,7.27
2023-05-15T00:04:50.226Z,6.63
2023-05-15T00:07:18.826Z,7.33
2023-05-15T00:09:47.234Z,8.10
2023-05-15T00:12:15.976Z,8.33
2023-05-15T00:14:46.010Z,8.40
2023-05-15T00:17:14.353Z,8.07
2023-05-15T00:19:42.701Z,9.00
2023-05-15T00:22:11.561Z,7.93
2023-05-15T00:24:40.063Z,8.33
2023-05-15T00:27:08.566Z,9.20
2023-05-15T00:29:37.122Z,7.40
2023-05-15T00:32:07.870Z,9.40
2023-05-15T00:34:36.511Z,8.17
2023-05-15T00:37:05.088Z,7.20
2023-05-15T00:39:33.551Z,8.53
2023-05-15T00:42:04.025Z,7.17
2023-05-15T00:44:33.346Z,6.77
2023-05-15T00:47:03.767Z,9.67
2023-05-15T00:49:35.649Z,8.97
2023-05-15T00:52:05.670Z,7.13
2023-05-15T00:54:34.407Z,7.40
2023-05-15T00:57:05.456Z,10.33
2023-05-15T00:59:34.971Z,10.37
2023-05-15T01:02:04.458Z,7.53
2023-05-15T01:04:34.555Z,8.13
2023-05-15T01:07:03.572Z,7.57
2023-05-15T01:09:33.882Z,9.67
2023-05-15T01:12:03.560Z,9.13
2023-05-15T01:14:32.218Z,8.77
2023-05-15T01:17:00.963Z,10.43
2023-05-15T01:19:29.447Z,6.77
2023-05-15T01:22:24.159Z,7.63
2023-05-15T01:25:39.153Z,7.60
2023-05-15T01:28:13.750Z,8.30
2023-05-15T01:30:45.147Z,7.40
2023-05-15T01:33:22.362Z,7.83
2023-05-15T01:35:57.219Z,9.73
2023-05-15T01:38:31.287Z,8.90
2023-05-15T01:41:07.984Z,8.70
2023-05-15T01:43:43.012Z,8.00
2023-05-15T01:46:14.736Z,9.20
2023-05-15T01:48:45.858Z,8.03
2023-05-15T01:51:16.448Z,9.57
2023-05-15T01:53:46.329Z,9.30
2023-05-15T01:56:16.563Z,8.57
2023-05-15T01:58:46.497Z,10.20
2023-05-15T02:01:17.156Z,7.60
2023-05-15T02:03:47.596Z,9.40
2023-05-15T02:06:16.420Z,9.07
2023-05-15T02:08:46.188Z,9.50
2023-05-15T02:11:16.192Z,8.77
2023-05-15T02:13:46.492Z,8.20
2023-05-15T02:16:15.139Z,9.83
2023-05-15T02:18:43.820Z,8.43
2023-05-15T02:21:12.938Z,8.87
2023-05-15T02:23:41.927Z,8.80
2023-05-15T02:26:32.157Z,12.80
2023-05-15T02:29:15.115Z,10.03
2023-05-15T02:31:52.424Z,9.60
2023-05-15T02:34:28.545Z,8.70
2023-05-15T02:37:02.030Z,8.97
2023-05-15T02:39:31.565Z,9.60
2023-05-15T02:42:02.879Z,9.47
2023-05-15T02:44:33.823Z,10.23
2023-05-15T02:47:03.272Z,8.40
2023-05-15T02:49:31.809Z,9.50
2023-05-15T02:52:00.257Z,8.37
2023-05-15T02:54:28.652Z,9.37
2023-05-15T02:56:57.378Z,10.40
2023-05-15T02:59:26.215Z,8.70
2023-05-15T03:01:56.405Z,9.60
2023-05-15T03:04:25.422Z,7.90
2023-05-15T03:06:54.088Z,10.30
2023-05-15T03:09:22.466Z,14.03
2023-05-15T03:11:50.833Z,11.50
2023-05-15T03:14:19.317Z,11.90
2023-05-15T03:16:47.834Z,12.30
2023-05-15T03:19:19.155Z,11.70
2023-05-15T03:21:47.670Z,10.90
2023-05-15T03:24:16.165Z,9.83
2023-05-15T03:26:45.220Z,16.50
2023-05-15T03:29:14.156Z,14.10
2023-05-15T03:31:42.833Z,11.07
2023-05-15T03:34:11.266Z,11.23
2023-05-15T03:36:41.128Z,10.40
2023-05-15T03:39:09.722Z,9.73
2023-05-15T03:41:38.365Z,9.83
2023-05-15T03:44:07.273Z,11.50
2023-05-15T03:46:35.693Z,9.73
2023-05-15T03:49:04.230Z,10.03
2023-05-15T03:51:32.719Z,10.10
2023-05-15T03:54:05.378Z,10.67
2023-05-15T03:56:34.142Z,10.00
2023-05-15T03:59:02.780Z,8.53
2023-05-15T04:01:31.556Z,9.23
2023-05-15T04:04:00.352Z,9.47
2023-05-15T04:06:29.268Z,10.83
2023-05-15T04:08:57.959Z,8.47
2023-05-15T04:11:29.054Z,9.80
2023-05-15T04:13:57.912Z,8.97
2023-05-15T04:16:26.681Z,9.37
2023-05-15T04:18:55.320Z,9.73
2023-05-15T04:21:23.788Z,9.10
2023-05-15T04:23:52.442Z,8.93
2023-05-15T04:26:20.977Z,9.80
2023-05-15T04:29:02.931Z,8.10
2023-05-15T04:31:32.988Z,11.70
2023-05-15T04:34:01.739Z,9.90
2023-05-15T04:36:30.244Z,8.83
2023-05-15T04:38:58.922Z,9.17
2023-05-15T04:41:28.187Z,10.27
2023-05-15T04:43:58.224Z,9.00
2023-05-15T04:46:26.978Z,9.07
2023-05-15T04:48:55.374Z,7.70
2023-05-15T04:51:23.975Z,8.00
2023-05-15T04:53:52.672Z,9.37
2023-05-15T04:56:21.625Z,9.37
2023-05-15T04:58:50.164Z,11.73
2023-05-15T05:01:20.168Z,10.53
2023-05-15T05:03:48.738Z,9.70
2023-05-15T05:06:17.198Z,10.07
2023-05-15T05:08:45.852Z,7.70
2023-05-15T05:11:14.418Z,8.00
2023-05-15T05:13:42.809Z,8.90
2023-05-15T05:16:11.640Z,7.93
2023-05-15T05:18:41.860Z,8.37
2023-05-15T05:21:11.536Z,9.60
2023-05-15T05:23:40.304Z,7.97
2023-05-15T05:26:08.573Z,8.57
2023-05-15T05:28:37.015Z,8.03
2023-05-15T05:31:06.427Z,7.43
2023-05-15T05:33:34.930Z,7.90
2023-05-15T05:36:05.413Z,6.60
2023-05-15T05:38:34.151Z,9.40
2023-05-15T05:41:03.203Z,11.70
2023-05-15T05:43:32.567Z,14.13
2023-05-15T05:46:01.292Z,10.38
2023-05-15T05:48:30.917Z,12.00
2023-05-15T05:51:00.059Z,13.45
2023-05-15T05:53:30.037Z,9.88
2023-05-15T05:55:58.604Z,7.78
2023-05-15T05:58:27.095Z,7.80
2023-05-15T06:00:55.809Z,7.57
2023-05-15T06:03:25.586Z,17.85
2023-05-15T06:05:54.116Z,10.13
2023-05-15T06:08:22.536Z,16.40
2023-05-15T06:10:52.293Z,13.82
2023-05-15T06:13:20.702Z,16.10
2023-05-15T06:15:49.323Z,11.07
2023-05-15T06:18:17.833Z,23.98
2023-05-15T06:20:47.083Z,14.45
2023-05-15T06:23:15.524Z,17.08
2023-05-15T06:25:44.219Z,11.63
2023-05-15T06:28:14.323Z,14.05
2023-05-15T06:30:43.154Z,23.65
2023-05-15T06:33:11.983Z,11.68
2023-05-15T06:35:40.592Z,14.25
2023-05-15T06:38:09.039Z,14.98
2023-05-15T06:40:37.561Z,20.73
2023-05-15T06:43:06.109Z,17.63
2023-05-15T06:45:36.315Z,19.90
2023-05-15T06:48:06.841Z,19.60
2023-05-15T06:50:37.791Z,20.53
2023-05-15T06:53:06.320Z,17.80
2023-05-15T06:55:36.662Z,13.23
2023-05-15T06:58:05.686Z,19.47
2023-05-15T07:00:35.620Z,16.53
2023-05-15T07:03:04.138Z,12.43
2023-05-15T07:05:32.721Z,9.17
2023-05-15T07:08:01.384Z,13.57
2023-05-15T07:10:29.757Z,17.03
2023-05-15T07:12:58.229Z,8.10
2023-05-15T07:15:26.773Z,10.73
2023-05-15T07:17:56.713Z,8.43
2023-05-15T07:20:28.243Z,11.90
2023-05-15T07:22:58.102Z,8.43
2023-05-15T07:25:27.287Z,7.43
2023-05-15T07:27:55.969Z,9.63
2023-05-15T07:30:27.718Z,6.80
2023-05-15T07:32:58.002Z,8.70
2023-05-15T07:35:27.437Z,7.43
2023-05-15T07:37:56.216Z,9.77
2023-05-15T07:40:24.883Z,5.10
2023-05-15T07:42:53.557Z,10.07
2023-05-15T07:45:22.455Z,8.73
2023-05-15T07:47:51.649Z,8.00
2023-05-15T07:50:21.801Z,8.20
2023-05-15T07:52:50.467Z,8.97
2023-05-15T07:55:19.261Z,7.20
2023-05-15T07:57:53.471Z,9.23
2023-05-15T08:00:23.338Z,10.40
2023-05-15T08:02:52.289Z,10.10
2023-05-15T08:05:22.316Z,7.27
2023-05-15T08:07:50.930Z,7.53
2023-05-15T08:10:19.802Z,9.57
2023-05-15T08:12:52.026Z,10.23
2023-05-15T08:15:20.929Z,7.10
2023-05-15T08:17:51.024Z,14.20
2023-05-15T08:20:19.622Z,8.33
2023-05-15T08:22:49.870Z,6.80
2023-05-15T08:25:18.761Z,7.23
2023-05-15T08:27:47.551Z,10.87
2023-05-15T08:30:16.507Z,7.23
2023-05-15T08:32:45.897Z,8.97
2023-05-15T08:35:14.944Z,6.70
2023-05-15T08:37:43.802Z,6.50
2023-05-15T08:40:14.889Z,5.67
2023-05-15T08:42:46.964Z,10.20
2023-05-15T08:45:16.042Z,6.03
2023-05-15T08:47:45.187Z,6.23
2023-05-15T08:50:15.876Z,6.93
2023-05-15T08:52:47.114Z,6.30
2023-05-15T08:55:18.075Z,5.70
2023-05-15T08:57:52.560Z,5.43
2023-05-15T09:00:22.558Z,8.33
2023-05-15T09:02:51.422Z,8.00
2023-05-15T09:05:20.594Z,8.50
2023-05-15T09:07:50.556Z,7.43
2023-05-15T09:10:21.239Z,5.47
2023-05-15T09:12:52.979Z,9.57
2023-05-15T09:15:25.540Z,6.17
2023-05-15T09:17:55.434Z,7.83
2023-05-15T09:20:28.948Z,4.73
2023-05-15T09:22:57.682Z,4.40
2023-05-15T09:25:39.636Z,4.53
2023-05-15T09:28:08.468Z,5.90
2023-05-15T09:30:43.576Z,4.67
2023-05-15T09:33:12.121Z,6.37
2023-05-15T09:35:41.109Z,4.23
2023-05-15T09:38:12.771Z,4.43
2023-05-15T09:40:43.251Z,5.67
2023-05-15T09:43:13.323Z,5.83
2023-05-15T09:45:41.924Z,7.53
2023-05-15T09:48:12.119Z,8.50
2023-05-15T09:50:42.618Z,9.27
2023-05-15T09:53:14.779Z,12.10
2023-05-15T09:55:44.849Z,8.87
2023-05-15T09:58:14.875Z,10.77
2023-05-15T10:00:47.728Z,10.87
2023-05-15T10:03:20.087Z,10.87
2023-05-15T10:05:49.172Z,10.37
2023-05-15T10:08:27.551Z,8.43
2023-05-15T10:11:00.187Z,7.10
2023-05-15T10:13:32.359Z,5.27
2023-05-15T10:16:02.369Z,6.63
2023-05-15T10:18:34.393Z,5.00
2023-05-15T10:21:04.579Z,4.83
2023-05-15T10:23:36.521Z,5.50
2023-05-15T10:26:15.685Z,7.37
2023-05-15T10:28:47.600Z,9.17
2023-05-15T10:31:16.821Z,4.70
2023-05-15T10:33:45.758Z,5.50
2023-05-15T10:36:16.563Z,5.97
2023-05-15T10:38:45.850Z,7.73
2023-05-15T10:41:19.154Z,8.87
2023-05-15T10:43:48.026Z,8.63
2023-05-15T10:46:16.982Z,6.60
2023-05-15T10:48:45.466Z,7.03
2023-05-15T10:51:18.270Z,5.80
2023-05-15T10:53:47.204Z,7.13
2023-05-15T10:56:17.713Z,6.77
2023-05-15T10:58:48.506Z,5.87
2023-05-15T11:01:31.886Z,10.13
2023-05-15T11:04:11.258Z,12.50
2023-05-15T11:06:40.487Z,4.73
2023-05-15T11:09:39.486Z,7.13
2023-05-15T11:12:11.829Z,9.17
2023-05-15T11:14:41.757Z,5.17
2023-05-15T11:17:11.348Z,5.67
2023-05-15T11:19:55.700Z,3.70
2023-05-15T11:22:28.718Z,6.20
2023-05-15T11:25:00.740Z,5.77
2023-05-15T11:27:32.014Z,3.57
2023-05-15T11:30:07.978Z,7.77
2023-05-15T11:32:49.543Z,4.03
2023-05-15T11:35:22.720Z,4.40
2023-05-15T11:37:53.984Z,8.17
2023-05-15T11:40:24.130Z,4.70
2023-05-15T11:43:09.026Z,6.97
2023-05-15T11:45:39.022Z,5.83
2023-05-15T11:48:09.664Z,5.20
2023-05-15T11:50:37.984Z,7.40
2023-05-15T11:53:07.899Z,5.63
2023-05-15T11:55:38.091Z,7.37
2023-05-15T11:58:12.965Z,6.07
2023-05-15T12:00:41.682Z,5.27
2023-05-15T12:03:17.616Z,6.67
2023-05-15T12:05:57.561Z,3.43
2023-05-15T12:08:32.089Z,4.10
2023-05-15T12:11:01.195Z,3.60
2023-05-15T12:13:31.919Z,3.87
2023-05-15T12:16:01.061Z,2.70
2023-05-15T12:18:29.562Z,3.67
2023-05-15T12:20:58.048Z,3.57
2023-05-15T12:23:28.792Z,6.07
2023-05-15T12:26:03.198Z,3.73
2023-05-15T12:28:36.915Z,3.90
2023-05-15T12:31:05.626Z,3.73
2023-05-15T12:33:34.275Z,5.43
2023-05-15T12:36:02.565Z,3.47
2023-05-15T12:38:31.167Z,3.77
2023-05-15T12:40:59.601Z,4.10
2023-05-15T12:43:28.183Z,3.10
2023-05-15T12:45:58.316Z,2.50
2023-05-15T12:48:32.119Z,2.50
2023-05-15T12:51:07.540Z,4.23
2023-05-15T12:53:36.244Z,2.70
2023-05-15T12:56:05.553Z,3.17
2023-05-15T12:58:34.779Z,3.23
2023-05-15T13:01:05.247Z,3.00
2023-05-15T13:03:34.179Z,2.70
2023-05-15T13:06:04.325Z,2.80
2023-05-15T13:08:32.629Z,3.10
2023-05-15T13:11:01.798Z,5.17
2023-05-15T13:13:48.718Z,3.23
2023-05-15T13:16:23.089Z,3.40
2023-05-15T13:18:51.767Z,2.93
2023-05-15T13:21:20.564Z,3.40
2023-05-15T13:23:48.978Z,4.00
2023-05-15T13:26:17.277Z,7.30
2023-05-15T13:28:45.562Z,3.27
2023-05-15T13:31:14.106Z,2.57
2023-05-15T13:33:43.971Z,1.87
2023-05-15T13:36:12.597Z,2.83
2023-05-15T13:38:40.995Z,2.80
2023-05-15T13:41:09.234Z,3.17
2023-05-15T13:43:37.705Z,5.93
2023-05-15T13:46:06.216Z,3.37
2023-05-15T13:48:34.490Z,4.03
2023-05-15T13:51:04.363Z,2.83
2023-05-15T13:53:32.846Z,6.30
2023-05-15T13:56:01.430Z,8.73
2023-05-15T13:58:29.705Z,9.10
2023-05-15T14:00:58.222Z,5.73
2023-05-15T14:03:26.817Z,3.10
2023-05-15T14:05:55.074Z,2.90
2023-05-15T14:08:24.762Z,6.13
2023-05-15T14:10:53.075Z,1.97
2023-05-15T14:13:21.850Z,3.07
2023-05-15T14:15:50.072Z,4.73
2023-05-15T14:18:18.348Z,4.90
2023-05-15T14:20:46.670Z,2.90
2023-05-15T14:23:15.599Z,3.87
2023-05-15T14:25:45.429Z,2.90
2023-05-15T14:28:13.702Z,2.80
2023-05-15T14:30:41.998Z,5.33
2023-05-15T14:33:10.504Z,2.10
2023-05-15T14:35:39.151Z,4.10
2023-05-15T14:38:07.621Z,4.00
2023-05-15T14:40:35.857Z,3.00
2023-05-15T14:43:06.251Z,3.13
2023-05-15T14:45:34.578Z,3.90
2023-05-15T14:48:03.177Z,2.87
2023-05-15T14:50:31.640Z,2.33
2023-05-15T14:53:00.083Z,3.33
2023-05-15T14:55:28.430Z,2.10
2023-05-15T14:57:56.667Z,2.10
2023-05-15T15:00:26.785Z,2.57
2023-05-15T15:02:55.479Z,2.60
2023-05-15T15:05:24.072Z,2.60
2023-05-15T15:08:11.105Z,2.67
2023-05-15T15:10:42.720Z,2.67
2023-05-15T15:13:13.002Z,2.27
2023-05-15T15:15:42.724Z,2.13
2023-05-15T15:18:11.208Z,1.90
2023-05-15T15:20:39.613Z,2.07
2023-05-15T15:23:07.815Z,2.60
2023-05-15T15:25:36.345Z,3.50
2023-05-15T15:28:04.966Z,4.57
2023-05-15T15:30:33.352Z,2.13
2023-05-15T15:33:03.141Z,2.00
2023-05-15T15:35:31.657Z,2.63
2023-05-15T15:38:00.004Z,2.60
2023-05-15T15:40:29.812Z,2.80
2023-05-15T15:42:58.300Z,2.30
2023-05-15T15:45:26.729Z,3.30
2023-05-15T15:47:55.193Z,3.43
2023-05-15T15:50:25.586Z,2.47
2023-05-15T15:52:54.059Z,2.67
2023-05-15T15:55:22.376Z,2.13
2023-05-15T15:57:50.860Z,2.23
2023-05-15T16:00:19.492Z,1.90
2023-05-15T16:02:47.858Z,2.07
2023-05-15T16:05:16.307Z,3.20
2023-05-15T16:07:47.879Z,2.53
2023-05-15T16:10:16.268Z,1.97
2023-05-15T16:12:45.628Z,2.00
2023-05-15T16:15:23.174Z,2.77
2023-05-15T16:17:54.135Z,2.20
2023-05-15T16:20:23.377Z,2.13
2023-05-15T16:22:53.117Z,2.53
2023-05-15T16:25:21.804Z,3.73
2023-05-15T16:27:50.124Z,3.20
2023-05-15T16:30:18.536Z,2.07
2023-05-15T16:32:48.610Z,3.73
2023-05-15T16:35:17.072Z,2.30
2023-05-15T16:37:45.459Z,3.13
2023-05-15T16:40:15.558Z,2.10
2023-05-15T16:42:43.813Z,3.23
2023-05-15T16:45:12.206Z,2.40
2023-05-15T16:47:41.409Z,2.57
2023-05-15T16:50:10.584Z,3.40
2023-05-15T16:52:45.176Z,2.33
2023-05-15T16:55:16.610Z,2.40
2023-05-15T16:57:45.333Z,1.90
2023-05-15T17:00:14.782Z,3.30
2023-05-15T17:02:43.919Z,2.10
2023-05-15T17:05:14.045Z,2.20
2023-05-15T17:07:48.404Z,2.40
2023-05-15T17:10:18.113Z,2.97
2023-05-15T17:12:46.624Z,2.37
2023-05-15T17:15:14.878Z,2.43
2023-05-15T17:17:43.050Z,4.37
2023-05-15T17:20:12.588Z,2.60
2023-05-15T17:22:40.724Z,3.40
2023-05-15T17:25:09.750Z,3.47
2023-05-15T17:27:41.455Z,2.60
2023-05-15T17:30:10.585Z,3.23
2023-05-15T17:32:39.809Z,2.80
2023-05-15T17:35:09.342Z,2.83
2023-05-15T17:37:37.966Z,2.50
2023-05-15T17:40:07.184Z,2.70
2023-05-15T17:42:36.098Z,2.93
2023-05-15T17:45:06.451Z,2.60
2023-05-15T17:47:34.808Z,2.70
2023-05-15T17:50:03.078Z,3.47
2023-05-15T17:52:31.289Z,4.33
2023-05-15T17:54:59.458Z,4.70
2023-05-15T17:57:27.789Z,3.10
2023-05-15T17:59:56.045Z,4.10
2023-05-15T18:02:25.846Z,3.40
2023-05-15T18:04:54.090Z,2.93
2023-05-15T18:07:22.323Z,3.43
2023-05-15T18:09:50.831Z,3.07
2023-05-15T18:12:19.168Z,3.37
2023-05-15T18:14:47.469Z,2.80
2023-05-15T18:17:16.292Z,4.17
2023-05-15T18:19:46.207Z,2.70
2023-05-15T18:22:14.504Z,3.10
2023-05-15T18:24:42.720Z,2.83
2023-05-15T18:27:11.029Z,4.07
2023-05-15T18:29:39.340Z,4.00
2023-05-15T18:32:07.721Z,2.97
2023-05-15T18:34:35.813Z,2.83
2023-05-15T18:37:06.146Z,3.13
2023-05-15T18:39:34.662Z,2.80
2023-05-15T18:42:03.269Z,2.97
2023-05-15T18:44:32.529Z,7.37
2023-05-15T18:47:01.040Z,13.30
2023-05-15T18:49:30.392Z,7.37
2023-05-15T18:51:59.368Z,11.30
2023-05-15T18:54:29.584Z,21.10
2023-05-15T18:56:58.013Z,14.57
2023-05-15T18:59:27.038Z,10.00
2023-05-15T19:01:55.702Z,4.73
2023-05-15T19:04:23.998Z,8.50
2023-05-15T19:06:52.671Z,5.20
2023-05-15T19:09:21.383Z,5.80
2023-05-15T19:11:52.551Z,6.83
2023-05-15T19:14:20.974Z,9.53
2023-05-15T19:16:55.332Z,6.07
2023-05-15T19:19:23.949Z,9.00
2023-05-15T19:21:53.352Z,4.83
2023-05-15T19:24:22.084Z,3.87
2023-05-15T19:26:52.005Z,6.23
2023-05-15T19:29:20.370Z,4.57
2023-05-15T19:31:48.687Z,4.67
2023-05-15T19:34:17.695Z,8.93
2023-05-15T19:36:47.120Z,4.10
2023-05-15T19:39:15.467Z,8.80
2023-05-15T19:41:44.025Z,4.63
2023-05-15T19:44:13.823Z,6.03
2023-05-15T19:46:42.203Z,15.17
2023-05-15T19:49:11.834Z,5.37
2023-05-15T19:51:41.199Z,5.80
2023-05-15T19:54:11.334Z,4.30
2023-05-15T19:56:39.729Z,7.17
2023-05-15T19:59:08.237Z,6.33
2023-05-15T20:01:38.086Z,4.70
2023-05-15T20:04:06.606Z,4.97
2023-05-15T20:06:35.224Z,7.43
2023-05-15T20:09:04.815Z,10.50
2023-05-15T20:11:33.141Z,6.90
2023-05-15T20:14:01.986Z,5.80
2023-05-15T20:16:30.622Z,7.87
2023-05-15T20:19:00.433Z,6.07
2023-05-15T20:21:28.944Z,4.90
2023-05-15T20:23:58.022Z,6.90
2023-05-15T20:26:26.600Z,5.23
2023-05-15T20:28:55.648Z,8.57
2023-05-15T20:31:23.999Z,7.17
2023-05-15T20:33:52.403Z,5.83
2023-05-15T20:36:25.610Z,5.23
2023-05-15T20:38:55.033Z,5.03
2023-05-15T20:41:24.212Z,5.00
2023-05-15T20:43:52.554Z,4.50
2023-05-15T20:46:20.882Z,5.53
2023-05-15T20:48:49.400Z,4.47
2023-05-15T20:51:17.702Z,4.53
2023-05-15T20:53:47.458Z,4.53
2023-05-15T20:56:15.835Z,5.97
2023-05-15T20:58:44.788Z,4.33
2023-05-15T21:01:12.828Z,4.70
2023-05-15T21:03:41.036Z,5.73
2023-05-15T21:06:09.700Z,5.00
2023-05-15T21:08:37.855Z,5.33
2023-05-15T21:11:07.571Z,5.93
2023-05-15T21:13:35.770Z,5.03
2023-05-15T21:16:03.926Z,5.00
2023-05-15T21:18:32.000Z,4.67
2023-05-15T21:21:00.595Z,4.70
2023-05-15T21:23:28.732Z,5.20
2023-05-15T21:25:56.770Z,5.43
2023-05-15T21:28:26.231Z,8.67
2023-05-15T21:30:54.323Z,5.47
2023-05-15T21:33:22.498Z,5.70
2023-05-15T21:35:51.519Z,5.43
2023-05-15T21:38:19.900Z,4.97
2023-05-15T21:40:48.337Z,5.37
2023-05-15T21:43:16.510Z,5.00
2023-05-15T21:45:45.905Z,5.00
2023-05-15T21:48:14.053Z,6.70
2023-05-15T21:50:42.127Z,6.13
2023-05-15T21:53:10.522Z,7.00
2023-05-15T21:55:39.801Z,5.10
2023-05-15T21:58:08.016Z,5.37
2023-05-15T22:00:36.257Z,4.93
2023-05-15T22:03:06.026Z,5.23
2023-05-15T22:05:34.225Z,5.40
2023-05-15T22:08:02.321Z,4.93
2023-05-15T22:10:30.415Z,5.47
2023-05-15T22:13:02.621Z,8.43
2023-05-15T22:15:30.968Z,7.43
2023-05-15T22:18:00.532Z,5.27
2023-05-15T22:20:30.080Z,5.80
2023-05-15T22:22:58.236Z,5.50
2023-05-15T22:25:26.459Z,5.70
2023-05-15T22:27:54.557Z,6.60
2023-05-15T22:30:22.795Z,5.83
2023-05-15T22:32:51.415Z,6.13
2023-05-15T22:35:20.327Z,5.43
2023-05-15T22:37:49.861Z,5.93
2023-05-15T22:40:18.342Z,6.67
2023-05-15T22:42:50.223Z,6.63
2023-05-15T22:45:19.066Z,5.67
2023-05-15T22:47:47.549Z,6.57
2023-05-15T22:50:16.183Z,5.70
2023-05-15T22:52:44.553Z,5.67
2023-05-15T22:55:14.676Z,6.53
2023-05-15T22:57:43.150Z,8.37
2023-05-15T23:00:12.915Z,6.47
2023-05-15T23:02:43.493Z,6.27
2023-05-15T23:05:13.350Z,5.77
2023-05-15T23:07:41.796Z,6.20
2023-05-15T23:10:10.845Z,7.33
2023-05-15T23:12:40.638Z,6.77
2023-05-15T23:15:10.751Z,6.43
2023-05-15T23:17:39.254Z,6.43
2023-05-15T23:20:10.497Z,8.23
2023-05-15T23:22:39.188Z,7.90
2023-05-15T23:25:08.585Z,6.93
2023-05-15T23:27:36.938Z,6.40
2023-05-15T23:30:07.978Z,7.20
2023-05-15T23:32:36.276Z,10.97
2023-05-15T23:35:04.848Z,7.43
2023-05-15T23:37:33.130Z,7.93
2023-05-15T23:40:01.387Z,8.27
2023-05-15T23:42:31.069Z,6.90
2023-05-15T23:44:59.432Z,7.63
2023-05-15T23:47:29.279Z,6.80
2023-05-15T23:49:57.609Z,7.73
2023-05-15T23:52:25.933Z,7.80
2023-05-15T23:54:54.395Z,7.00
2023-05-15T23:57:22.587Z,8.93
2023-05-15T23:59:50.872Z,7.27
